sensor_id;sensor_type;location;lat;lon;timestamp;P1;durP1;ratioP1;P2;durP2;ratioP2
14554;SDS011;7364;50.870;4.722;2024-01-30T00:00:34;5.23;;;3.80;;
14554;SDS011;7364;50.870;4.722;2024-01-30T00:03:02;8.70;;;4.37;;
14554;SDS011;7364;50.870;4.722;2024-01-30T00:05:29;5.93;;;3.80;;
14554;SDS011;7364;50.870;4.722;2024-01-30T00:07:57;4.73;;;3.27;;
14554;SDS011;7364;50.870;4.722;2024-01-30T00:10:24;5.20;;;3.63;;
14554;SDS011;7364;50.870;4.722;2024-01-30T00:12:51;7.20;;;4.20;;
14554;SDS011;7364;50.870;4.722;2024-01-30T00:15:20;5.80;;;3.83;;
14554;SDS011;7364;50.870;4.722;2024-01-30T00:17:48;5.30;;;3.57;;
14554;SDS011;7364;50.870;4.722;2024-01-30T00:20:17;7.57;;;4.20;;
14554;SDS011;7364;50.870;4.722;2024-01-30T00:22:44;7.07;;;4.43;;
14554;SDS011;7364;50.870;4.722;2024-01-30T00:25:12;4.33;;;3.60;;
14554;SDS011;7364;50.870;4.722;2024-01-30T00:27:39;7.10;;;4.10;;
14554;SDS011;7364;50.870;4.722;2024-01-30T00:30:07;6.80;;;4.17;;
14554;SDS011;7364;50.870;4.722;2024-01-30T00:32:36;6.67;;;4.00;;
14554;SDS011;7364;50.870;4.722;2024-01-30T00:35:04;6.73;;;4.47;;
14554;SDS011;7364;50.870;4.722;2024-01-30T00:37:32;5.27;;;3.60;;
14554;SDS011;7364;50.870;4.722;2024-01-30T00:39:59;10.10;;;4.43;;
14554;SDS011;7364;50.870;4.722;2024-01-30T00:42:27;4.47;;;3.63;;
14554;SDS011;7364;50.870;4.722;2024-01-30T00:44:54;7.43;;;3.43;;
14554;SDS011;7364;50.870;4.722;2024-01-30T00:47:21;5.13;;;3.63;;
14554;SDS011;7364;50.870;4.722;2024-01-30T00:49:50;5.10;;;3.13;;
14554;SDS011;7364;50.870;4.722;2024-01-30T00:52:17;3.37;;;2.90;;
14554;SDS011;7364;50.870;4.722;2024-01-30T00:54:44;7.00;;;3.50;;
14554;SDS011;7364;50.870;4.722;2024-01-30T00:57:11;6.00;;;4.20;;
14554;SDS011;7364;50.870;4.722;2024-01-30T00:59:39;4.77;;;3.63;;
14554;SDS011;7364;50.870;4.722;2024-01-30T01:02:06;10.00;;;4.40;;
14554;SDS011;7364;50.870;4.722;2024-01-30T01:04:33;4.53;;;3.17;;
14554;SDS011;7364;50.870;4.722;2024-01-30T01:07:02;6.20;;;4.47;;
14554;SDS011;7364;50.870;4.722;2024-01-30T01:09:30;6.23;;;3.57;;
14554;SDS011;7364;50.870;4.722;2024-01-30T01:11:57;8.33;;;4.03;;
14554;SDS011;7364;50.870;4.722;2024-01-30T01:14:24;6.50;;;3.93;;
14554;SDS011;7364;50.870;4.722;2024-01-30T01:16:51;6.67;;;3.80;;
14554;SDS011;7364;50.870;4.722;2024-01-30T01:19:19;6.83;;;3.87;;
14554;SDS011;7364;50.870;4.722;2024-01-30T01:21:46;5.23;;;3.50;;
14554;SDS011;7364;50.870;4.722;2024-01-30T01:24:14;4.30;;;3.13;;
14554;SDS011;7364;50.870;4.722;2024-01-30T01:26:42;5.30;;;3.83;;
14554;SDS011;7364;50.870;4.722;2024-01-30T01:29:09;6.40;;;3.93;;
14554;SDS011;7364;50.870;4.722;2024-01-30T01:31:37;6.07;;;4.30;;
14554;SDS011;7364;50.870;4.722;2024-01-30T01:34:08;5.40;;;3.73;;
14554;SDS011;7364;50.870;4.722;2024-01-30T01:36:36;5.67;;;3.43;;
14554;SDS011;7364;50.870;4.722;2024-01-30T01:39:03;5.90;;;4.03;;
14554;SDS011;7364;50.870;4.722;2024-01-30T01:41:32;5.00;;;3.17;;
14554;SDS011;7364;50.870;4.722;2024-01-30T01:43:59;4.63;;;3.67;;
14554;SDS011;7364;50.870;4.722;2024-01-30T01:46:27;5.33;;;3.50;;
14554;SDS011;7364;50.870;4.722;2024-01-30T01:48:56;5.97;;;4.27;;
14554;SDS011;7364;50.870;4.722;2024-01-30T01:51:24;9.43;;;3.53;;
14554;SDS011;7364;50.870;4.722;2024-01-30T01:53:53;5.40;;;3.83;;
14554;SDS011;7364;50.870;4.722;2024-01-30T01:56:22;8.03;;;3.57;;
14554;SDS011;7364;50.870;4.722;2024-01-30T01:58:51;5.20;;;3.33;;
14554;SDS011;7364;50.870;4.722;2024-01-30T02:01:22;8.63;;;4.27;;
14554;SDS011;7364;50.870;4.722;2024-01-30T02:03:51;6.70;;;3.70;;
14554;SDS011;7364;50.870;4.722;2024-01-30T02:06:18;4.40;;;3.50;;
14554;SDS011;7364;50.870;4.722;2024-01-30T02:08:46;5.83;;;3.50;;
14554;SDS011;7364;50.870;4.722;2024-01-30T02:11:14;8.77;;;3.40;;
14554;SDS011;7364;50.870;4.722;2024-01-30T02:13:41;4.73;;;3.50;;
14554;SDS011;7364;50.870;4.722;2024-01-30T02:16:10;6.20;;;3.27;;
14554;SDS011;7364;50.870;4.722;2024-01-30T02:18:38;5.50;;;3.47;;
14554;SDS011;7364;50.870;4.722;2024-01-30T02:21:10;5.23;;;3.53;;
14554;SDS011;7364;50.870;4.722;2024-01-30T02:23:38;4.70;;;3.67;;
14554;SDS011;7364;50.870;4.722;2024-01-30T02:26:07;5.30;;;4.10;;
14554;SDS011;7364;50.870;4.722;2024-01-30T02:28:34;4.63;;;3.50;;
14554;SDS011;7364;50.870;4.722;2024-01-30T02:31:01;4.10;;;3.57;;
14554;SDS011;7364;50.870;4.722;2024-01-30T02:33:29;6.03;;;3.57;;
14554;SDS011;7364;50.870;4.722;2024-01-30T02:38:39;6.47;;;3.20;;
14554;SDS011;7364;50.870;4.722;2024-01-30T02:41:06;5.00;;;3.37;;
14554;SDS011;7364;50.870;4.722;2024-01-30T02:43:34;9.40;;;3.10;;
14554;SDS011;7364;50.870;4.722;2024-01-30T02:46:01;7.70;;;3.17;;
14554;SDS011;7364;50.870;4.722;2024-01-30T02:48:28;7.07;;;3.10;;
14554;SDS011;7364;50.870;4.722;2024-01-30T02:50:57;7.13;;;4.13;;
14554;SDS011;7364;50.870;4.722;2024-01-30T02:53:25;8.27;;;4.20;;
14554;SDS011;7364;50.870;4.722;2024-01-30T02:55:53;8.20;;;5.10;;
14554;SDS011;7364;50.870;4.722;2024-01-30T02:58:20;5.40;;;4.10;;
14554;SDS011;7364;50.870;4.722;2024-01-30T03:00:48;11.07;;;5.60;;
14554;SDS011;7364;50.870;4.722;2024-01-30T03:03:15;10.07;;;4.90;;
14554;SDS011;7364;50.870;4.722;2024-01-30T03:05:42;7.43;;;4.17;;
14554;SDS011;7364;50.870;4.722;2024-01-30T03:08:09;7.80;;;5.13;;
14554;SDS011;7364;50.870;4.722;2024-01-30T03:10:36;5.40;;;3.83;;
14554;SDS011;7364;50.870;4.722;2024-01-30T03:13:05;6.70;;;4.07;;
14554;SDS011;7364;50.870;4.722;2024-01-30T03:15:33;10.00;;;4.67;;
14554;SDS011;7364;50.870;4.722;2024-01-30T03:18:01;7.50;;;3.93;;
14554;SDS011;7364;50.870;4.722;2024-01-30T03:20:29;5.77;;;3.60;;
14554;SDS011;7364;50.870;4.722;2024-01-30T03:22:57;6.97;;;4.17;;
14554;SDS011;7364;50.870;4.722;2024-01-30T03:25:26;5.67;;;3.77;;
14554;SDS011;7364;50.870;4.722;2024-01-30T03:27:53;7.70;;;3.90;;
14554;SDS011;7364;50.870;4.722;2024-01-30T03:30:21;6.10;;;3.83;;
14554;SDS011;7364;50.870;4.722;2024-01-30T03:32:49;6.10;;;3.73;;
14554;SDS011;7364;50.870;4.722;2024-01-30T03:35:16;6.10;;;4.00;;
14554;SDS011;7364;50.870;4.722;2024-01-30T03:37:45;5.07;;;4.03;;
14554;SDS011;7364;50.870;4.722;2024-01-30T03:40:12;7.77;;;3.40;;
14554;SDS011;7364;50.870;4.722;2024-01-30T03:42:40;4.60;;;3.37;;
14554;SDS011;7364;50.870;4.722;2024-01-30T03:45:08;6.70;;;3.87;;
14554;SDS011;7364;50.870;4.722;2024-01-30T03:47:37;5.27;;;3.73;;
14554;SDS011;7364;50.870;4.722;2024-01-30T03:50:05;6.03;;;4.07;;
14554;SDS011;7364;50.870;4.722;2024-01-30T03:52:32;5.63;;;3.97;;
14554;SDS011;7364;50.870;4.722;2024-01-30T03:54:59;5.37;;;3.43;;
14554;SDS011;7364;50.870;4.722;2024-01-30T03:57:27;4.67;;;3.90;;
14554;SDS011;7364;50.870;4.722;2024-01-30T03:59:54;5.97;;;3.70;;
14554;SDS011;7364;50.870;4.722;2024-01-30T04:02:21;6.57;;;3.70;;
14554;SDS011;7364;50.870;4.722;2024-01-30T04:04:50;4.47;;;3.47;;
14554;SDS011;7364;50.870;4.722;2024-01-30T04:07:17;5.97;;;4.43;;
14554;SDS011;7364;50.870;4.722;2024-01-30T04:09:44;6.23;;;4.27;;
14554;SDS011;7364;50.870;4.722;2024-01-30T04:12:14;8.57;;;4.23;;
14554;SDS011;7364;50.870;4.722;2024-01-30T04:14:42;5.47;;;3.93;;
14554;SDS011;7364;50.870;4.722;2024-01-30T04:17:09;6.37;;;4.07;;
14554;SDS011;7364;50.870;4.722;2024-01-30T04:19:37;6.50;;;4.20;;
14554;SDS011;7364;50.870;4.722;2024-01-30T04:22:06;6.03;;;3.93;;
14554;SDS011;7364;50.870;4.722;2024-01-30T04:24:33;5.47;;;3.37;;
14554;SDS011;7364;50.870;4.722;2024-01-30T04:27:00;5.97;;;4.10;;
14554;SDS011;7364;50.870;4.722;2024-01-30T04:29:28;6.73;;;4.00;;
14554;SDS011;7364;50.870;4.722;2024-01-30T04:31:55;5.90;;;3.73;;
14554;SDS011;7364;50.870;4.722;2024-01-30T04:34:22;5.63;;;3.87;;
14554;SDS011;7364;50.870;4.722;2024-01-30T04:36:50;4.43;;;3.47;;
14554;SDS011;7364;50.870;4.722;2024-01-30T04:39:18;5.23;;;3.97;;
14554;SDS011;7364;50.870;4.722;2024-01-30T04:41:45;6.37;;;3.87;;
14554;SDS011;7364;50.870;4.722;2024-01-30T04:44:13;4.13;;;3.47;;
14554;SDS011;7364;50.870;4.722;2024-01-30T04:46:40;5.93;;;4.03;;
14554;SDS011;7364;50.870;4.722;2024-01-30T04:49:08;6.50;;;3.57;;
14554;SDS011;7364;50.870;4.722;2024-01-30T04:51:35;6.97;;;4.43;;
14554;SDS011;7364;50.870;4.722;2024-01-30T04:54:02;5.50;;;3.50;;
14554;SDS011;7364;50.870;4.722;2024-01-30T04:56:31;7.87;;;4.13;;
14554;SDS011;7364;50.870;4.722;2024-01-30T04:58:58;9.60;;;4.33;;
14554;SDS011;7364;50.870;4.722;2024-01-30T05:01:26;5.03;;;4.00;;
14554;SDS011;7364;50.870;4.722;2024-01-30T05:03:53;5.33;;;3.97;;
14554;SDS011;7364;50.870;4.722;2024-01-30T05:06:24;6.97;;;3.97;;
14554;SDS011;7364;50.870;4.722;2024-01-30T05:08:51;7.80;;;4.43;;
14554;SDS011;7364;50.870;4.722;2024-01-30T05:11:19;6.60;;;4.30;;
14554;SDS011;7364;50.870;4.722;2024-01-30T05:13:47;9.40;;;4.50;;
14554;SDS011;7364;50.870;4.722;2024-01-30T05:16:14;5.70;;;4.37;;
14554;SDS011;7364;50.870;4.722;2024-01-30T05:18:42;7.40;;;4.10;;
14554;SDS011;7364;50.870;4.722;2024-01-30T05:21:10;6.30;;;4.37;;
14554;SDS011;7364;50.870;4.722;2024-01-30T05:23:37;5.23;;;3.50;;
14554;SDS011;7364;50.870;4.722;2024-01-30T05:26:05;9.73;;;4.53;;
14554;SDS011;7364;50.870;4.722;2024-01-30T05:28:32;4.77;;;3.83;;
14554;SDS011;7364;50.870;4.722;2024-01-30T05:31:01;4.83;;;3.60;;
14554;SDS011;7364;50.870;4.722;2024-01-30T05:33:28;6.30;;;4.10;;
14554;SDS011;7364;50.870;4.722;2024-01-30T05:35:55;5.30;;;3.87;;
14554;SDS011;7364;50.870;4.722;2024-01-30T05:38:23;6.13;;;4.00;;
14554;SDS011;7364;50.870;4.722;2024-01-30T05:40:50;7.50;;;4.13;;
14554;SDS011;7364;50.870;4.722;2024-01-30T05:43:17;11.13;;;3.50;;
14554;SDS011;7364;50.870;4.722;2024-01-30T05:45:44;7.73;;;4.17;;
14554;SDS011;7364;50.870;4.722;2024-01-30T05:48:13;7.97;;;3.83;;
14554;SDS011;7364;50.870;4.722;2024-01-30T05:50:40;4.37;;;3.67;;
14554;SDS011;7364;50.870;4.722;2024-01-30T05:53:07;6.03;;;3.93;;
14554;SDS011;7364;50.870;4.722;2024-01-30T05:55:34;5.63;;;4.13;;
14554;SDS011;7364;50.870;4.722;2024-01-30T05:58:02;8.37;;;3.60;;
14554;SDS011;7364;50.870;4.722;2024-01-30T06:00:30;6.10;;;4.40;;
14554;SDS011;7364;50.870;4.722;2024-01-30T06:02:57;5.23;;;3.93;;
14554;SDS011;7364;50.870;4.722;2024-01-30T06:05:25;5.67;;;3.47;;
14554;SDS011;7364;50.870;4.722;2024-01-30T06:07:53;6.40;;;4.97;;
14554;SDS011;7364;50.870;4.722;2024-01-30T06:10:19;5.53;;;4.17;;
14554;SDS011;7364;50.870;4.722;2024-01-30T06:12:46;8.90;;;4.37;;
14554;SDS011;7364;50.870;4.722;2024-01-30T06:15:13;5.33;;;4.13;;
14554;SDS011;7364;50.870;4.722;2024-01-30T06:17:40;9.07;;;4.83;;
14554;SDS011;7364;50.870;4.722;2024-01-30T06:20:11;4.53;;;3.83;;
14554;SDS011;7364;50.870;4.722;2024-01-30T06:22:40;5.40;;;4.33;;
14554;SDS011;7364;50.870;4.722;2024-01-30T06:25:07;6.27;;;4.43;;
14554;SDS011;7364;50.870;4.722;2024-01-30T06:27:35;6.67;;;4.33;;
14554;SDS011;7364;50.870;4.722;2024-01-30T06:30:02;6.50;;;4.00;;
14554;SDS011;7364;50.870;4.722;2024-01-30T06:32:30;6.57;;;4.27;;
14554;SDS011;7364;50.870;4.722;2024-01-30T06:34:59;8.77;;;4.67;;
14554;SDS011;7364;50.870;4.722;2024-01-30T06:37:27;7.97;;;4.17;;
14554;SDS011;7364;50.870;4.722;2024-01-30T06:39:58;6.27;;;4.70;;
14554;SDS011;7364;50.870;4.722;2024-01-30T06:42:25;7.33;;;4.93;;
14554;SDS011;7364;50.870;4.722;2024-01-30T06:44:52;6.63;;;4.23;;
14554;SDS011;7364;50.870;4.722;2024-01-30T06:47:19;5.13;;;3.97;;
14554;SDS011;7364;50.870;4.722;2024-01-30T06:49:47;6.10;;;4.40;;
14554;SDS011;7364;50.870;4.722;2024-01-30T06:52:14;10.10;;;5.30;;
14554;SDS011;7364;50.870;4.722;2024-01-30T06:54:41;9.80;;;5.80;;
14554;SDS011;7364;50.870;4.722;2024-01-30T06:57:10;6.40;;;4.80;;
14554;SDS011;7364;50.870;4.722;2024-01-30T06:59:39;5.23;;;4.40;;
14554;SDS011;7364;50.870;4.722;2024-01-30T07:02:09;7.60;;;5.07;;
14554;SDS011;7364;50.870;4.722;2024-01-30T07:04:36;6.97;;;4.33;;
14554;SDS011;7364;50.870;4.722;2024-01-30T07:07:04;5.80;;;4.83;;
14554;SDS011;7364;50.870;4.722;2024-01-30T07:09:37;9.10;;;5.03;;
14554;SDS011;7364;50.870;4.722;2024-01-30T07:12:05;6.27;;;4.83;;
14554;SDS011;7364;50.870;4.722;2024-01-30T07:14:34;6.77;;;5.27;;
14554;SDS011;7364;50.870;4.722;2024-01-30T07:17:02;6.90;;;4.70;;
14554;SDS011;7364;50.870;4.722;2024-01-30T07:19:30;6.80;;;5.33;;
14554;SDS011;7364;50.870;4.722;2024-01-30T07:21:58;7.73;;;4.93;;
14554;SDS011;7364;50.870;4.722;2024-01-30T07:24:26;8.20;;;5.10;;
14554;SDS011;7364;50.870;4.722;2024-01-30T07:26:53;8.87;;;5.33;;
14554;SDS011;7364;50.870;4.722;2024-01-30T07:29:20;9.17;;;5.93;;
14554;SDS011;7364;50.870;4.722;2024-01-30T07:31:51;7.50;;;5.13;;
14554;SDS011;7364;50.870;4.722;2024-01-30T07:34:18;9.17;;;6.17;;
14554;SDS011;7364;50.870;4.722;2024-01-30T07:36:46;12.43;;;5.27;;
14554;SDS011;7364;50.870;4.722;2024-01-30T07:39:13;6.77;;;5.33;;
14554;SDS011;7364;50.870;4.722;2024-01-30T07:41:40;13.73;;;5.07;;
14554;SDS011;7364;50.870;4.722;2024-01-30T07:44:07;8.10;;;5.67;;
14554;SDS011;7364;50.870;4.722;2024-01-30T07:46:35;10.17;;;5.60;;
14554;SDS011;7364;50.870;4.722;2024-01-30T07:49:04;6.53;;;4.93;;
14554;SDS011;7364;50.870;4.722;2024-01-30T07:51:32;8.33;;;5.67;;
14554;SDS011;7364;50.870;4.722;2024-01-30T07:53:59;6.47;;;4.90;;
14554;SDS011;7364;50.870;4.722;2024-01-30T07:56:27;7.73;;;5.37;;
14554;SDS011;7364;50.870;4.722;2024-01-30T07:58:54;6.17;;;5.20;;
14554;SDS011;7364;50.870;4.722;2024-01-30T08:01:21;7.50;;;5.20;;
14554;SDS011;7364;50.870;4.722;2024-01-30T08:03:48;6.10;;;4.37;;
14554;SDS011;7364;50.870;4.722;2024-01-30T08:06:17;6.97;;;5.17;;
14554;SDS011;7364;50.870;4.722;2024-01-30T08:08:45;8.87;;;4.97;;
14554;SDS011;7364;50.870;4.722;2024-01-30T08:11:12;9.00;;;5.23;;
14554;SDS011;7364;50.870;4.722;2024-01-30T08:13:39;5.43;;;4.37;;
14554;SDS011;7364;50.870;4.722;2024-01-30T08:16:07;7.80;;;5.27;;
14554;SDS011;7364;50.870;4.722;2024-01-30T08:18:34;12.87;;;5.40;;
14554;SDS011;7364;50.870;4.722;2024-01-30T08:21:02;8.17;;;5.30;;
14554;SDS011;7364;50.870;4.722;2024-01-30T08:23:32;8.10;;;4.77;;
14554;SDS011;7364;50.870;4.722;2024-01-30T08:25:59;8.07;;;5.00;;
14554;SDS011;7364;50.870;4.722;2024-01-30T08:28:27;7.37;;;5.33;;
14554;SDS011;7364;50.870;4.722;2024-01-30T08:30:55;5.27;;;4.70;;
14554;SDS011;7364;50.870;4.722;2024-01-30T08:33:22;8.30;;;5.40;;
14554;SDS011;7364;50.870;4.722;2024-01-30T08:35:50;9.27;;;4.97;;
14554;SDS011;7364;50.870;4.722;2024-01-30T08:38:17;12.67;;;4.83;;
14554;SDS011;7364;50.870;4.722;2024-01-30T08:40:46;15.33;;;4.37;;
14554;SDS011;7364;50.870;4.722;2024-01-30T08:43:13;5.53;;;4.23;;
14554;SDS011;7364;50.870;4.722;2024-01-30T08:45:41;9.17;;;4.57;;
14554;SDS011;7364;50.870;4.722;2024-01-30T08:48:08;5.63;;;4.53;;
14554;SDS011;7364;50.870;4.722;2024-01-30T08:50:36;6.53;;;5.13;;
14554;SDS011;7364;50.870;4.722;2024-01-30T08:53:04;6.90;;;4.20;;
14554;SDS011;7364;50.870;4.722;2024-01-30T08:55:31;7.30;;;4.90;;
14554;SDS011;7364;50.870;4.722;2024-01-30T08:58:00;7.37;;;5.50;;
14554;SDS011;7364;50.870;4.722;2024-01-30T09:00:29;9.40;;;5.33;;
14554;SDS011;7364;50.870;4.722;2024-01-30T09:02:56;10.00;;;5.20;;
14554;SDS011;7364;50.870;4.722;2024-01-30T09:05:23;9.43;;;4.90;;
14554;SDS011;7364;50.870;4.722;2024-01-30T09:07:50;6.23;;;4.60;;
14554;SDS011;7364;50.870;4.722;2024-01-30T09:10:19;6.77;;;4.77;;
14554;SDS011;7364;50.870;4.722;2024-01-30T09:12:47;7.80;;;4.50;;
14554;SDS011;7364;50.870;4.722;2024-01-30T09:15:15;8.20;;;5.47;;
14554;SDS011;7364;50.870;4.722;2024-01-30T09:17:44;6.57;;;5.00;;
14554;SDS011;7364;50.870;4.722;2024-01-30T09:20:11;7.07;;;5.00;;
14554;SDS011;7364;50.870;4.722;2024-01-30T09:22:38;8.70;;;4.90;;
14554;SDS011;7364;50.870;4.722;2024-01-30T09:25:05;7.47;;;4.83;;
14554;SDS011;7364;50.870;4.722;2024-01-30T09:27:33;7.77;;;5.13;;
14554;SDS011;7364;50.870;4.722;2024-01-30T09:30:00;5.37;;;3.73;;
14554;SDS011;7364;50.870;4.722;2024-01-30T09:32:29;6.07;;;4.93;;
14554;SDS011;7364;50.870;4.722;2024-01-30T09:34:56;7.20;;;4.83;;
14554;SDS011;7364;50.870;4.722;2024-01-30T09:37:24;6.57;;;5.30;;
14554;SDS011;7364;50.870;4.722;2024-01-30T09:39:51;8.13;;;4.70;;
14554;SDS011;7364;50.870;4.722;2024-01-30T09:42:26;7.33;;;4.40;;
14554;SDS011;7364;50.870;4.722;2024-01-30T09:44:59;8.87;;;4.23;;
14554;SDS011;7364;50.870;4.722;2024-01-30T09:47:29;7.00;;;4.70;;
14554;SDS011;7364;50.870;4.722;2024-01-30T09:49:58;8.27;;;4.90;;
14554;SDS011;7364;50.870;4.722;2024-01-30T09:52:28;10.57;;;4.90;;
14554;SDS011;7364;50.870;4.722;2024-01-30T09:54:55;6.77;;;4.43;;
14554;SDS011;7364;50.870;4.722;2024-01-30T09:57:24;6.53;;;5.13;;
14554;SDS011;7364;50.870;4.722;2024-01-30T09:59:51;8.30;;;5.17;;
14554;SDS011;7364;50.870;4.722;2024-01-30T10:02:19;7.57;;;4.90;;
14554;SDS011;7364;50.870;4.722;2024-01-30T10:04:48;6.10;;;4.80;;
14554;SDS011;7364;50.870;4.722;2024-01-30T10:07:17;8.67;;;5.17;;
14554;SDS011;7364;50.870;4.722;2024-01-30T10:09:44;11.30;;;5.13;;
14554;SDS011;7364;50.870;4.722;2024-01-30T10:12:13;5.93;;;4.50;;
14554;SDS011;7364;50.870;4.722;2024-01-30T10:14:40;9.50;;;4.73;;
14554;SDS011;7364;50.870;4.722;2024-01-30T10:17:08;7.77;;;4.77;;
14554;SDS011;7364;50.870;4.722;2024-01-30T10:19:35;5.27;;;4.70;;
14554;SDS011;7364;50.870;4.722;2024-01-30T10:22:05;6.10;;;5.00;;
14554;SDS011;7364;50.870;4.722;2024-01-30T10:24:33;7.93;;;5.40;;
14554;SDS011;7364;50.870;4.722;2024-01-30T10:27:00;12.50;;;5.20;;
14554;SDS011;7364;50.870;4.722;2024-01-30T10:29:27;10.00;;;5.63;;
14554;SDS011;7364;50.870;4.722;2024-01-30T10:31:58;8.13;;;5.97;;
14554;SDS011;7364;50.870;4.722;2024-01-30T10:34:26;5.73;;;5.03;;
14554;SDS011;7364;50.870;4.722;2024-01-30T10:36:55;9.83;;;5.27;;
14554;SDS011;7364;50.870;4.722;2024-01-30T10:39:34;7.70;;;5.00;;
14554;SDS011;7364;50.870;4.722;2024-01-30T10:42:04;8.30;;;5.20;;
14554;SDS011;7364;50.870;4.722;2024-01-30T10:44:36;10.43;;;5.90;;
14554;SDS011;7364;50.870;4.722;2024-01-30T10:47:11;9.50;;;5.93;;
14554;SDS011;7364;50.870;4.722;2024-01-30T10:49:39;12.23;;;6.73;;
14554;SDS011;7364;50.870;4.722;2024-01-30T10:52:09;7.53;;;6.27;;
14554;SDS011;7364;50.870;4.722;2024-01-30T10:54:39;11.40;;;5.77;;
14554;SDS011;7364;50.870;4.722;2024-01-30T10:57:09;10.40;;;6.63;;
14554;SDS011;7364;50.870;4.722;2024-01-30T10:59:37;9.63;;;6.37;;
14554;SDS011;7364;50.870;4.722;2024-01-30T11:02:04;8.57;;;6.57;;
14554;SDS011;7364;50.870;4.722;2024-01-30T11:04:36;11.10;;;6.47;;
14554;SDS011;7364;50.870;4.722;2024-01-30T11:07:13;14.97;;;7.47;;
14554;SDS011;7364;50.870;4.722;2024-01-30T11:09:49;10.33;;;6.57;;
14554;SDS011;7364;50.870;4.722;2024-01-30T11:12:18;9.33;;;6.40;;
14554;SDS011;7364;50.870;4.722;2024-01-30T11:14:50;9.80;;;6.27;;
14554;SDS011;7364;50.870;4.722;2024-01-30T11:17:39;11.20;;;6.53;;
14554;SDS011;7364;50.870;4.722;2024-01-30T11:20:09;9.93;;;6.00;;
14554;SDS011;7364;50.870;4.722;2024-01-30T11:22:40;11.43;;;5.47;;
14554;SDS011;7364;50.870;4.722;2024-01-30T11:25:14;10.83;;;4.87;;
14554;SDS011;7364;50.870;4.722;2024-01-30T11:27:42;7.53;;;4.50;;
14554;SDS011;7364;50.870;4.722;2024-01-30T11:30:10;9.23;;;5.33;;
14554;SDS011;7364;50.870;4.722;2024-01-30T11:33:02;6.20;;;4.30;;
14554;SDS011;7364;50.870;4.722;2024-01-30T11:35:32;8.47;;;4.33;;
14554;SDS011;7364;50.870;4.722;2024-01-30T11:38:01;14.83;;;5.50;;
14554;SDS011;7364;50.870;4.722;2024-01-30T11:40:30;6.67;;;4.30;;
14554;SDS011;7364;50.870;4.722;2024-01-30T11:42:59;7.17;;;5.10;;
14554;SDS011;7364;50.870;4.722;2024-01-30T11:45:28;6.00;;;4.63;;
14554;SDS011;7364;50.870;4.722;2024-01-30T11:47:55;6.50;;;3.90;;
14554;SDS011;7364;50.870;4.722;2024-01-30T11:50:25;10.83;;;3.43;;
14554;SDS011;7364;50.870;4.722;2024-01-30T11:52:54;6.03;;;3.23;;
14554;SDS011;7364;50.870;4.722;2024-01-30T11:55:22;5.87;;;2.90;;
14554;SDS011;7364;50.870;4.722;2024-01-30T11:57:51;11.23;;;2.90;;
14554;SDS011;7364;50.870;4.722;2024-01-30T12:00:21;5.80;;;2.40;;
14554;SDS011;7364;50.870;4.722;2024-01-30T12:02:49;3.27;;;1.83;;
14554;SDS011;7364;50.870;4.722;2024-01-30T12:05:20;4.43;;;2.20;;
14554;SDS011;7364;50.870;4.722;2024-01-30T12:07:48;2.73;;;1.73;;
14554;SDS011;7364;50.870;4.722;2024-01-30T12:10:16;4.20;;;1.57;;
14554;SDS011;7364;50.870;4.722;2024-01-30T12:12:45;5.17;;;1.53;;
14554;SDS011;7364;50.870;4.722;2024-01-30T12:15:15;4.10;;;1.37;;
14554;SDS011;7364;50.870;4.722;2024-01-30T12:17:42;5.93;;;1.93;;
14554;SDS011;7364;50.870;4.722;2024-01-30T12:20:10;4.03;;;1.10;;
14554;SDS011;7364;50.870;4.722;2024-01-30T12:22:39;1.73;;;1.00;;
14554;SDS011;7364;50.870;4.722;2024-01-30T12:25:08;1.27;;;0.90;;
14554;SDS011;7364;50.870;4.722;2024-01-30T12:27:35;2.60;;;1.20;;
14554;SDS011;7364;50.870;4.722;2024-01-30T12:30:05;2.00;;;1.07;;
14554;SDS011;7364;50.870;4.722;2024-01-30T12:32:35;9.83;;;1.27;;
14554;SDS011;7364;50.870;4.722;2024-01-30T12:35:03;1.30;;;0.80;;
14554;SDS011;7364;50.870;4.722;2024-01-30T12:37:33;1.53;;;0.60;;
14554;SDS011;7364;50.870;4.722;2024-01-30T12:40:01;0.87;;;0.67;;
14554;SDS011;7364;50.870;4.722;2024-01-30T12:42:28;2.67;;;1.03;;
14554;SDS011;7364;50.870;4.722;2024-01-30T12:44:56;1.60;;;0.80;;
14554;SDS011;7364;50.870;4.722;2024-01-30T12:47:24;1.13;;;0.77;;
14554;SDS011;7364;50.870;4.722;2024-01-30T12:49:53;2.63;;;0.80;;
14554;SDS011;7364;50.870;4.722;2024-01-30T12:52:21;2.73;;;0.70;;
14554;SDS011;7364;50.870;4.722;2024-01-30T12:54:48;1.20;;;0.73;;
14554;SDS011;7364;50.870;4.722;2024-01-30T12:57:16;5.63;;;0.90;;
14554;SDS011;7364;50.870;4.722;2024-01-30T12:59:43;1.13;;;0.83;;
14554;SDS011;7364;50.870;4.722;2024-01-30T13:02:11;2.73;;;0.80;;
14554;SDS011;7364;50.870;4.722;2024-01-30T13:04:39;2.57;;;0.70;;
14554;SDS011;7364;50.870;4.722;2024-01-30T13:07:08;1.60;;;0.60;;
14554;SDS011;7364;50.870;4.722;2024-01-30T13:09:36;0.77;;;0.63;;
14554;SDS011;7364;50.870;4.722;2024-01-30T13:12:03;2.20;;;0.60;;
14554;SDS011;7364;50.870;4.722;2024-01-30T13:14:31;0.93;;;0.60;;
14554;SDS011;7364;50.870;4.722;2024-01-30T13:16:58;1.07;;;0.53;;
14554;SDS011;7364;50.870;4.722;2024-01-30T13:19:26;1.77;;;0.70;;
14554;SDS011;7364;50.870;4.722;2024-01-30T13:21:53;2.07;;;0.83;;
14554;SDS011;7364;50.870;4.722;2024-01-30T13:24:22;2.37;;;0.90;;
14554;SDS011;7364;50.870;4.722;2024-01-30T13:26:49;0.70;;;0.70;;
14554;SDS011;7364;50.870;4.722;2024-01-30T13:29:18;2.97;;;0.70;;
14554;SDS011;7364;50.870;4.722;2024-01-30T13:31:45;1.37;;;0.70;;
14554;SDS011;7364;50.870;4.722;2024-01-30T13:34:12;2.17;;;0.70;;
14554;SDS011;7364;50.870;4.722;2024-01-30T13:36:40;0.67;;;0.60;;
14554;SDS011;7364;50.870;4.722;2024-01-30T13:39:08;1.93;;;0.70;;
14554;SDS011;7364;50.870;4.722;2024-01-30T13:41:39;4.10;;;1.20;;
14554;SDS011;7364;50.870;4.722;2024-01-30T13:44:07;0.97;;;0.60;;
14554;SDS011;7364;50.870;4.722;2024-01-30T13:46:34;1.37;;;0.83;;
14554;SDS011;7364;50.870;4.722;2024-01-30T13:49:02;1.43;;;0.93;;
14554;SDS011;7364;50.870;4.722;2024-01-30T13:51:29;1.30;;;0.93;;
14554;SDS011;7364;50.870;4.722;2024-01-30T13:53:56;6.37;;;1.27;;
14554;SDS011;7364;50.870;4.722;2024-01-30T13:56:23;1.20;;;0.50;;
14554;SDS011;7364;50.870;4.722;2024-01-30T13:58:53;4.40;;;1.20;;
14554;SDS011;7364;50.870;4.722;2024-01-30T14:01:22;6.90;;;0.80;;
14554;SDS011;7364;50.870;4.722;2024-01-30T14:03:49;2.93;;;0.73;;
14554;SDS011;7364;50.870;4.722;2024-01-30T14:06:17;3.00;;;1.07;;
14554;SDS011;7364;50.870;4.722;2024-01-30T14:08:44;3.20;;;1.10;;
14554;SDS011;7364;50.870;4.722;2024-01-30T14:11:12;1.00;;;0.60;;
14554;SDS011;7364;50.870;4.722;2024-01-30T14:13:39;7.23;;;1.30;;
14554;SDS011;7364;50.870;4.722;2024-01-30T14:16:08;4.07;;;0.90;;
14554;SDS011;7364;50.870;4.722;2024-01-30T14:18:35;2.77;;;0.90;;
14554;SDS011;7364;50.870;4.722;2024-01-30T14:21:02;2.90;;;0.87;;
14554;SDS011;7364;50.870;4.722;2024-01-30T14:23:29;4.50;;;1.10;;
14554;SDS011;7364;50.870;4.722;2024-01-30T14:25:56;1.90;;;1.03;;
14554;SDS011;7364;50.870;4.722;2024-01-30T14:28:24;1.40;;;0.90;;
14554;SDS011;7364;50.870;4.722;2024-01-30T14:30:51;2.50;;;0.90;;
14554;SDS011;7364;50.870;4.722;2024-01-30T14:33:19;2.30;;;0.80;;
14554;SDS011;7364;50.870;4.722;2024-01-30T14:35:46;2.70;;;1.20;;
14554;SDS011;7364;50.870;4.722;2024-01-30T14:38:14;2.70;;;1.03;;
14554;SDS011;7364;50.870;4.722;2024-01-30T14:40:41;2.60;;;0.83;;
14554;SDS011;7364;50.870;4.722;2024-01-30T14:43:08;2.37;;;0.87;;
14554;SDS011;7364;50.870;4.722;2024-01-30T14:45:35;1.80;;;0.80;;
14554;SDS011;7364;50.870;4.722;2024-01-30T14:48:03;7.70;;;1.43;;
14554;SDS011;7364;50.870;4.722;2024-01-30T14:50:32;1.70;;;1.00;;
14554;SDS011;7364;50.870;4.722;2024-01-30T14:52:59;3.00;;;1.10;;
14554;SDS011;7364;50.870;4.722;2024-01-30T14:55:27;2.27;;;0.80;;
14554;SDS011;7364;50.870;4.722;2024-01-30T14:57:54;1.60;;;0.73;;
14554;SDS011;7364;50.870;4.722;2024-01-30T15:00:21;5.70;;;1.00;;
14554;SDS011;7364;50.870;4.722;2024-01-30T15:02:48;6.03;;;1.87;;
14554;SDS011;7364;50.870;4.722;2024-01-30T15:05:16;0.80;;;0.50;;
14554;SDS011;7364;50.870;4.722;2024-01-30T15:07:47;2.17;;;0.73;;